createdAt,value
2019-05-30T00:00:30.881Z,91.32
2019-05-30T00:01:30.904Z,91.68
2019-05-30T00:02:30.893Z,91.53
2019-05-30T00:03:30.869Z,91.46
2019-05-30T00:04:30.869Z,91.50
2019-05-30T00:05:30.923Z,91.59
2019-05-30T00:06:30.913Z,91.26
2019-05-30T00:07:30.908Z,91.39
2019-05-30T00:08:30.900Z,90.55
2019-05-30T00:09:30.906Z,91.06
2019-05-30T00:10:30.894Z,90.79
2019-05-30T00:11:30.889Z,90.98
2019-05-30T00:12:30.888Z,91.20
2019-05-30T00:13:30.910Z,91.02
2019-05-30T00:14:30.918Z,91.02
2019-05-30T00:15:30.885Z,91.44
2019-05-30T00:16:30.946Z,91.54
2019-05-30T00:17:30.901Z,91.38
2019-05-30T00:18:30.930Z,91.34
2019-05-30T00:19:33.811Z,91.50
2019-05-30T00:20:30.936Z,91.42
2019-05-30T00:21:30.957Z,91.69
2019-05-30T00:22:30.901Z,91.61
2019-05-30T00:23:30.939Z,91.76
2019-05-30T00:24:30.940Z,91.93
2019-05-30T00:25:30.906Z,91.94
2019-05-30T00:26:30.971Z,91.90
2019-05-30T00:27:30.957Z,92.24
2019-05-30T00:28:30.929Z,92.00
2019-05-30T00:29:30.941Z,91.75
2019-05-30T00:30:30.895Z,91.99
2019-05-30T00:31:30.933Z,91.96
2019-05-30T00:32:30.901Z,91.92
2019-05-30T00:33:30.941Z,92.04
2019-05-30T00:34:30.941Z,91.95
2019-05-30T00:35:30.944Z,91.94
2019-05-30T00:36:30.951Z,92.29
2019-05-30T00:37:31.239Z,92.30
2019-05-30T00:38:30.966Z,92.29
2019-05-30T00:39:30.944Z,92.27
2019-05-30T00:40:30.974Z,92.28
2019-05-30T00:41:30.987Z,92.35
2019-05-30T00:42:30.979Z,92.43
2019-05-30T00:43:30.993Z,92.41
2019-05-30T00:44:30.937Z,92.44
2019-05-30T00:45:30.936Z,92.67
2019-05-30T00:46:30.917Z,92.58
2019-05-30T00:47:30.919Z,92.51
2019-05-30T00:48:31.024Z,92.69
2019-05-30T00:49:30.960Z,92.75
2019-05-30T00:50:30.929Z,92.51
2019-05-30T00:51:30.940Z,92.81
2019-05-30T00:52:30.938Z,93.15
2019-05-30T00:53:30.979Z,92.57
2019-05-30T00:54:30.966Z,93.07
2019-05-30T00:55:30.972Z,92.96
2019-05-30T00:56:30.965Z,93.05
2019-05-30T00:57:30.927Z,92.95
2019-05-30T00:58:30.981Z,92.78
2019-05-30T00:59:30.963Z,93.12
2019-05-30T01:00:42.564Z,93.00
2019-05-30T01:01:30.923Z,93.34
2019-05-30T01:02:30.974Z,92.99
2019-05-30T01:03:30.995Z,93.26
2019-05-30T01:04:31.255Z,93.46
2019-05-30T01:05:30.990Z,93.81
2019-05-30T01:06:30.989Z,93.55
2019-05-30T01:07:31.028Z,93.67
2019-05-30T01:08:30.992Z,93.90
2019-05-30T01:09:31.007Z,93.58
2019-05-30T01:10:30.967Z,93.58
2019-05-30T01:11:30.947Z,94.13
2019-05-30T01:12:30.955Z,94.46
2019-05-30T01:13:30.948Z,94.27
2019-05-30T01:14:31.008Z,94.02
2019-05-30T01:15:31.000Z,93.95
2019-05-30T01:16:30.978Z,94.75
2019-05-30T01:17:31.001Z,94.13
2019-05-30T01:18:30.976Z,94.34
2019-05-30T01:19:30.999Z,94.45
2019-05-30T01:20:31.015Z,94.18
2019-05-30T01:21:30.995Z,94.60
2019-05-30T01:22:30.996Z,94.15
2019-05-30T01:23:31.002Z,94.38
2019-05-30T01:24:31.004Z,94.96
2019-05-30T01:25:31.004Z,95.19
2019-05-30T01:26:30.972Z,94.78
2019-05-30T01:27:30.968Z,94.85
2019-05-30T01:28:30.966Z,94.89
2019-05-30T01:29:31.002Z,94.74
2019-05-30T01:30:31.020Z,95.00
2019-05-30T01:31:31.030Z,94.90
2019-05-30T01:32:31.010Z,94.70
2019-05-30T01:33:31.020Z,94.78
2019-05-30T01:34:31.001Z,95.38
2019-05-30T01:35:30.995Z,95.11
2019-05-30T01:36:31.053Z,95.42
2019-05-30T01:37:31.025Z,95.29
2019-05-30T01:38:31.031Z,95.78
2019-05-30T01:39:31.017Z,95.83
2019-05-30T01:40:31.046Z,95.79
2019-05-30T01:41:31.044Z,95.92
2019-05-30T01:42:31.048Z,95.90
2019-05-30T01:43:31.020Z,95.79
2019-05-30T01:44:30.996Z,96.10
2019-05-30T01:45:31.024Z,95.88
2019-05-30T01:46:31.003Z,95.88
2019-05-30T01:47:31.025Z,96.20
2019-05-30T01:48:30.978Z,96.22
2019-05-30T01:49:31.023Z,96.09
2019-05-30T01:50:31.057Z,95.97
2019-05-30T01:51:31.065Z,95.42
2019-05-30T01:52:31.071Z,96.31
2019-05-30T01:53:31.045Z,96.23
2019-05-30T01:54:31.003Z,96.28
2019-05-30T01:55:31.036Z,96.02
2019-05-30T01:56:31.278Z,95.86
2019-05-30T01:57:31.026Z,96.47
2019-05-30T01:58:31.010Z,96.11
2019-05-30T01:59:30.992Z,95.93
2019-05-30T02:00:31.018Z,96.08
2019-05-30T02:01:31.075Z,96.01
2019-05-30T02:02:31.050Z,95.89
2019-05-30T02:03:31.029Z,96.22
2019-05-30T02:04:31.044Z,96.55
2019-05-30T02:05:31.045Z,96.29
2019-05-30T02:06:31.038Z,96.78
2019-05-30T02:07:30.999Z,96.64
2019-05-30T02:08:31.043Z,95.93
2019-05-30T02:09:31.049Z,96.38
2019-05-30T02:10:31.060Z,96.41
2019-05-30T02:11:31.062Z,96.24
2019-05-30T02:12:31.070Z,96.84
2019-05-30T02:13:31.051Z,96.08
2019-05-30T02:14:31.060Z,96.11
2019-05-30T02:15:31.014Z,96.25
2019-05-30T02:16:31.086Z,95.87
2019-05-30T02:17:31.081Z,95.87
2019-05-30T02:18:31.072Z,96.33
2019-05-30T02:19:31.064Z,95.90
2019-05-30T02:20:31.036Z,95.78
2019-05-30T02:21:31.103Z,96.22
2019-05-30T02:22:31.020Z,95.95
2019-05-30T02:23:31.042Z,96.18
2019-05-30T02:24:31.043Z,95.86
2019-05-30T02:25:31.044Z,96.01
2019-05-30T02:26:31.116Z,96.24
2019-05-30T02:27:31.069Z,96.18
2019-05-30T02:28:31.034Z,95.58
2019-05-30T02:29:31.070Z,96.12
2019-05-30T02:30:31.095Z,95.58
2019-05-30T02:31:39.176Z,95.63
2019-05-30T02:32:31.030Z,95.71
2019-05-30T02:33:31.052Z,96.05
2019-05-30T02:34:31.054Z,96.06
2019-05-30T02:35:31.054Z,96.04
2019-05-30T02:36:31.111Z,95.93
2019-05-30T02:37:31.086Z,95.49
2019-05-30T02:38:31.068Z,95.84
2019-05-30T02:39:31.101Z,95.84
2019-05-30T02:40:31.082Z,95.51
2019-05-30T02:41:31.109Z,95.48
2019-05-30T02:42:31.065Z,95.65
2019-05-30T02:43:31.108Z,95.54
2019-05-30T02:44:31.110Z,95.72
2019-05-30T02:45:31.043Z,95.69
2019-05-30T02:46:31.144Z,95.45
2019-05-30T02:47:31.051Z,96.25
2019-05-30T02:48:31.098Z,95.59
2019-05-30T02:49:31.099Z,95.67
2019-05-30T02:50:31.072Z,96.24
2019-05-30T02:51:31.105Z,95.84
2019-05-30T02:52:31.074Z,96.06
2019-05-30T02:53:31.090Z,96.02
2019-05-30T02:54:31.097Z,95.91
2019-05-30T02:55:31.099Z,95.71
2019-05-30T02:56:31.083Z,95.65
2019-05-30T02:57:31.110Z,95.82
2019-05-30T02:58:31.050Z,96.01
2019-05-30T02:59:31.372Z,95.88
2019-05-30T03:00:31.103Z,96.36
2019-05-30T03:01:31.087Z,96.26
2019-05-30T03:02:31.104Z,96.42
2019-05-30T03:03:31.139Z,96.27
2019-05-30T03:04:31.145Z,96.29
2019-05-30T03:05:31.068Z,96.09
2019-05-30T03:06:31.129Z,96.32
2019-05-30T03:07:31.145Z,96.46
2019-05-30T03:08:31.078Z,96.02
2019-05-30T03:09:31.147Z,96.20
2019-05-30T03:10:31.102Z,96.49
2019-05-30T03:11:31.080Z,96.03
2019-05-30T03:12:31.137Z,96.01
2019-05-30T03:13:31.137Z,96.23
2019-05-30T03:14:31.097Z,96.14
2019-05-30T03:15:31.104Z,95.81
2019-05-30T03:16:31.121Z,96.51
2019-05-30T03:17:31.139Z,96.02
2019-05-30T03:18:31.138Z,96.29
2019-05-30T03:19:31.148Z,96.46
2019-05-30T03:20:31.130Z,96.07
2019-05-30T03:21:31.163Z,96.30
2019-05-30T03:22:31.163Z,96.02
2019-05-30T03:23:31.143Z,95.71
2019-05-30T03:24:31.140Z,96.22
2019-05-30T03:25:31.088Z,96.32
2019-05-30T03:26:31.083Z,96.44
2019-05-30T03:27:31.160Z,96.39
2019-05-30T03:28:31.110Z,96.44
2019-05-30T03:29:31.098Z,96.46
2019-05-30T03:30:31.110Z,96.55
2019-05-30T03:31:31.105Z,96.36
2019-05-30T03:33:02.406Z,96.71
2019-05-30T03:33:38.801Z,96.46
2019-05-30T03:34:31.145Z,96.31
2019-05-30T03:35:40.262Z,96.45
2019-05-30T03:36:32.026Z,96.35
2019-05-30T03:37:31.535Z,96.56
2019-05-30T03:38:31.105Z,96.39
2019-05-30T03:39:31.101Z,96.37
2019-05-30T03:40:32.039Z,96.49
2019-05-30T03:41:31.142Z,96.77
2019-05-30T03:42:31.158Z,96.31
2019-05-30T03:54:54.077Z,97.03
2019-05-30T03:55:54.112Z,97.35
2019-05-30T03:56:54.112Z,97.19
2019-05-30T03:57:54.118Z,96.71
2019-05-30T03:58:54.120Z,97.02
2019-05-30T03:59:54.117Z,97.19
2019-05-30T04:00:54.118Z,96.96
2019-05-30T04:01:54.151Z,96.40
2019-05-30T04:02:58.003Z,96.39
2019-05-30T04:03:54.116Z,96.93
2019-05-30T04:04:54.131Z,97.48
2019-05-30T04:05:54.155Z,97.02
2019-05-30T04:06:54.122Z,97.00
2019-05-30T04:07:54.124Z,97.12
2019-05-30T04:08:54.159Z,97.60
2019-05-30T04:09:54.098Z,96.58
2019-05-30T04:10:54.147Z,96.69
2019-05-30T04:11:54.096Z,96.69
2019-05-30T04:12:54.164Z,97.30
2019-05-30T04:13:54.157Z,97.05
2019-05-30T04:14:54.120Z,97.34
2019-05-30T04:15:54.144Z,97.46
2019-05-30T04:16:54.491Z,96.74
2019-05-30T04:17:54.136Z,97.39
2019-05-30T04:18:54.172Z,97.01
2019-05-30T04:19:54.141Z,97.07
2019-05-30T04:20:54.126Z,96.82
2019-05-30T04:21:54.174Z,97.36
2019-05-30T04:22:54.134Z,96.98
2019-05-30T04:23:54.147Z,97.67
2019-05-30T04:24:54.145Z,97.05
2019-05-30T04:25:54.158Z,96.93
2019-05-30T04:26:54.290Z,97.28
2019-05-30T04:27:54.175Z,97.74
2019-05-30T04:28:54.154Z,97.53
2019-05-30T04:29:54.147Z,97.17
2019-05-30T04:30:54.164Z,97.34
2019-05-30T04:31:54.194Z,97.94
2019-05-30T04:32:54.157Z,97.18
2019-05-30T04:33:54.139Z,97.76
2019-05-30T04:34:54.216Z,96.95
2019-05-30T04:35:54.190Z,97.22
2019-05-30T04:36:54.224Z,97.23
2019-05-30T04:37:54.160Z,97.41
2019-05-30T04:38:54.193Z,97.19
2019-05-30T04:39:54.326Z,97.87
2019-05-30T04:40:54.162Z,97.80
2019-05-30T04:41:54.566Z,97.61
2019-05-30T04:42:54.131Z,97.19
2019-05-30T04:43:54.184Z,97.51
2019-05-30T04:44:54.140Z,97.77
2019-05-30T04:45:54.157Z,97.87
2019-05-30T04:46:54.202Z,97.21
2019-05-30T04:47:54.172Z,97.59
2019-05-30T04:48:54.215Z,97.30
2019-05-30T04:49:54.175Z,97.24
2019-05-30T04:50:54.152Z,96.98
2019-05-30T04:51:54.198Z,97.17
2019-05-30T04:52:54.187Z,97.79
2019-05-30T04:53:54.197Z,97.62
2019-05-30T04:54:54.187Z,97.42
2019-05-30T04:55:54.191Z,97.82
2019-05-30T04:56:54.235Z,97.82
2019-05-30T04:57:54.194Z,97.24
2019-05-30T04:58:54.226Z,97.34
2019-05-30T04:59:54.203Z,97.61
2019-05-30T05:00:54.187Z,97.37
2019-05-30T05:01:54.184Z,97.67
2019-05-30T05:02:54.245Z,97.18
2019-05-30T05:03:54.231Z,97.72
2019-05-30T05:04:54.185Z,97.63
2019-05-30T05:05:54.202Z,97.26
2019-05-30T05:06:54.225Z,96.88
2019-05-30T05:07:54.225Z,97.28
2019-05-30T05:08:54.223Z,97.17
2019-05-30T05:09:54.199Z,97.14
2019-05-30T05:10:54.246Z,97.04
2019-05-30T05:11:54.235Z,97.38
2019-05-30T05:12:54.248Z,96.77
2019-05-30T05:13:54.204Z,96.78
2019-05-30T05:14:54.218Z,96.67
2019-05-30T05:15:54.204Z,96.41
2019-05-30T05:16:54.211Z,96.17
2019-05-30T05:17:54.228Z,96.01
2019-05-30T05:18:54.255Z,95.64
2019-05-30T05:19:54.220Z,95.23
2019-05-30T05:20:54.232Z,94.51
2019-05-30T05:21:54.266Z,93.62
2019-05-30T05:22:54.236Z,93.08
2019-05-30T05:23:54.240Z,92.26
2019-05-30T05:24:54.203Z,91.70
2019-05-30T05:26:00.806Z,91.58
2019-05-30T05:26:54.215Z,91.32
2019-05-30T05:27:54.262Z,91.46
2019-05-30T05:28:54.203Z,91.73
2019-05-30T05:29:54.247Z,91.33
2019-05-30T05:30:54.242Z,90.61
2019-05-30T05:31:54.243Z,90.13
2019-05-30T05:32:54.203Z,90.33
2019-05-30T05:33:57.117Z,90.61
2019-05-30T05:34:54.253Z,90.08
2019-05-30T05:35:54.224Z,90.01
2019-05-30T05:36:54.242Z,89.68
2019-05-30T05:37:54.255Z,89.92
2019-05-30T05:38:54.241Z,90.45
2019-05-30T05:39:54.270Z,90.56
2019-05-30T05:40:54.255Z,90.59
2019-05-30T05:41:54.229Z,89.73
2019-05-30T05:42:54.321Z,89.15
2019-05-30T05:43:54.330Z,89.12
2019-05-30T05:44:54.284Z,89.04
2019-05-30T05:45:54.277Z,89.05
2019-05-30T05:46:54.262Z,87.68
2019-05-30T05:47:54.254Z,88.12
2019-05-30T05:48:54.304Z,88.99
2019-05-30T05:49:54.357Z,88.01
2019-05-30T05:50:54.312Z,87.69
2019-05-30T05:51:54.243Z,86.91
2019-05-30T05:52:54.239Z,86.63
2019-05-30T05:53:54.222Z,86.35
2019-05-30T05:54:54.242Z,86.54
2019-05-30T05:55:54.303Z,87.15
2019-05-30T05:56:54.255Z,87.53
2019-05-30T05:57:54.228Z,86.22
2019-05-30T05:58:54.271Z,87.07
2019-05-30T05:59:54.285Z,86.04
2019-05-30T06:00:54.288Z,84.49
2019-05-30T06:01:54.288Z,84.88
2019-05-30T06:02:54.310Z,86.26
2019-05-30T06:03:54.263Z,85.63
2019-05-30T06:04:54.281Z,85.89
2019-05-30T06:05:54.281Z,85.96
2019-05-30T06:06:54.278Z,84.66
2019-05-30T06:07:54.268Z,83.92
2019-05-30T06:08:54.295Z,85.47
2019-05-30T06:09:54.287Z,82.82
2019-05-30T06:10:54.274Z,85.24
2019-05-30T06:11:54.283Z,83.69
2019-05-30T06:12:54.300Z,82.46
2019-05-30T06:13:54.283Z,81.63
2019-05-30T06:14:54.288Z,83.43
2019-05-30T06:15:54.285Z,82.44
2019-05-30T06:16:55.831Z,82.83
2019-05-30T06:17:54.310Z,85.28
2019-05-30T06:18:54.280Z,84.00
2019-05-30T06:19:58.112Z,84.69
2019-05-30T06:20:54.344Z,83.24
2019-05-30T06:21:56.349Z,82.27
2019-05-30T06:22:57.073Z,82.02
2019-05-30T06:23:54.292Z,84.13
2019-05-30T06:24:54.293Z,82.65
2019-05-30T06:25:54.346Z,82.70
2019-05-30T06:26:57.301Z,84.10
2019-05-30T06:27:58.107Z,84.65
2019-05-30T06:28:58.668Z,83.71
2019-05-30T06:29:58.613Z,83.00
2019-05-30T06:30:54.311Z,82.91
2019-05-30T06:31:56.662Z,81.64
2019-05-30T06:34:09.279Z,83.54
2019-05-30T06:38:54.312Z,80.00
2019-05-30T06:46:48.665Z,82.16
2019-05-30T06:53:45.685Z,78.93
2019-05-30T06:54:45.700Z,81.00
2019-05-30T06:55:47.810Z,81.04
2019-05-30T06:56:45.750Z,82.11
2019-05-30T06:57:45.751Z,81.67
2019-05-30T06:59:45.763Z,80.52
2019-05-30T07:00:45.709Z,78.25
2019-05-30T07:01:45.745Z,78.58
2019-05-30T07:02:45.704Z,72.96
2019-05-30T07:04:51.543Z,73.84
2019-05-30T07:05:46.027Z,75.95
2019-05-30T07:06:45.869Z,75.56
2019-05-30T07:07:45.877Z,75.82
2019-05-30T07:09:45.799Z,74.86
2019-05-30T07:10:45.741Z,72.75
2019-05-30T07:11:45.769Z,76.67
2019-05-30T07:12:45.713Z,74.09
2019-05-30T07:15:46.050Z,76.66
2019-05-30T07:16:45.703Z,73.69
2019-05-30T07:17:45.751Z,72.92
2019-05-30T07:18:45.712Z,70.37
2019-05-30T07:20:45.746Z,73.84
2019-05-30T07:21:45.737Z,73.17
2019-05-30T07:22:45.730Z,74.96
2019-05-30T07:23:45.720Z,73.76
2019-05-30T07:25:45.803Z,73.67
2019-05-30T07:26:45.814Z,70.93
2019-05-30T07:27:45.808Z,71.72
2019-05-30T07:28:45.815Z,75.81
2019-05-30T07:31:45.723Z,77.09
2019-05-30T07:32:45.735Z,77.81
2019-05-30T07:33:45.797Z,71.02
2019-05-30T07:34:46.144Z,74.97
2019-05-30T07:36:45.730Z,78.19
2019-05-30T07:37:46.664Z,75.65
2019-05-30T07:38:45.726Z,73.07
2019-05-30T07:39:45.780Z,69.36
2019-05-30T07:41:45.824Z,63.18
2019-05-30T07:42:45.775Z,72.58
2019-05-30T07:43:45.827Z,71.55
2019-05-30T07:44:45.832Z,71.87
2019-05-30T07:46:45.830Z,69.69
2019-05-30T07:47:45.797Z,59.76
2019-05-30T07:48:45.733Z,66.30
2019-05-30T07:49:45.790Z,68.98
2019-05-30T07:51:45.792Z,67.36
2019-05-30T07:52:45.797Z,65.06
2019-05-30T07:53:51.554Z,67.21
2019-05-30T07:54:45.828Z,63.91
2019-05-30T07:57:45.825Z,64.69
2019-05-30T07:58:45.829Z,63.59
2019-05-30T08:00:45.781Z,63.71
2019-05-30T08:02:45.809Z,72.27
2019-05-30T08:03:45.864Z,67.56
2019-05-30T08:04:47.038Z,63.09
2019-05-30T08:05:45.966Z,65.56
2019-05-30T08:07:45.809Z,66.52
2019-05-30T08:08:45.760Z,63.34
2019-05-30T08:09:45.831Z,59.48
2019-05-30T08:10:45.864Z,65.06
2019-05-30T08:12:45.915Z,60.49
2019-05-30T08:13:45.851Z,65.28
2019-05-30T08:14:45.868Z,65.74
2019-05-30T08:15:45.854Z,61.79
2019-05-30T08:43:45.902Z,57.47
2019-05-30T08:45:45.809Z,57.59
2019-05-30T08:46:45.884Z,46.97
2019-05-30T08:47:45.898Z,51.16
2019-05-30T08:48:45.901Z,46.61
2019-05-30T08:51:45.914Z,49.75
2019-05-30T08:52:45.817Z,57.91
2019-05-30T08:53:45.845Z,49.75
2019-05-30T08:54:45.888Z,52.29
2019-05-30T08:57:45.900Z,49.40
2019-05-30T08:58:45.875Z,47.95
2019-05-30T08:59:45.907Z,51.55
2019-05-30T09:00:45.884Z,57.21
2019-05-30T09:02:46.928Z,55.11
2019-05-30T09:03:46.276Z,57.92
2019-05-30T09:04:46.046Z,55.82
2019-05-30T09:05:59.309Z,53.56
2019-05-30T09:07:46.355Z,53.44
2019-05-30T09:08:46.389Z,49.13
2019-05-30T09:09:46.355Z,52.73
2019-05-30T09:10:46.500Z,51.53
2019-05-30T09:13:46.731Z,51.59
2019-05-30T09:14:46.933Z,54.95
2019-05-30T09:15:47.080Z,48.86
2019-05-30T09:16:46.556Z,49.26
2019-05-30T09:18:47.286Z,47.44
2019-05-30T09:19:47.417Z,50.72
2019-05-30T09:20:47.353Z,51.82
2019-05-30T09:21:45.946Z,54.65
2019-05-30T09:24:46.158Z,51.06
2019-05-30T09:25:49.017Z,53.60
2019-05-30T09:26:48.688Z,53.27
2019-05-30T09:27:46.655Z,56.26
2019-05-30T09:29:46.226Z,52.75
2019-05-30T09:30:46.498Z,48.61
2019-05-30T09:31:46.724Z,55.39
2019-05-30T09:32:46.986Z,52.08
2019-05-30T09:34:46.988Z,50.40
2019-05-30T09:35:46.988Z,54.86
2019-05-30T09:36:46.911Z,48.65
2019-05-30T09:37:46.449Z,50.32
2019-05-30T09:39:45.964Z,50.63
2019-05-30T09:40:45.936Z,50.68
2019-05-30T09:41:45.913Z,45.68
2019-05-30T09:42:46.922Z,54.35
2019-05-30T09:45:46.085Z,51.92
2019-05-30T09:46:46.982Z,50.91
2019-05-30T09:47:47.156Z,49.74
2019-05-30T09:48:46.693Z,40.08
2019-05-30T09:50:46.779Z,49.08
2019-05-30T09:51:46.976Z,47.87
2019-05-30T09:52:47.012Z,47.53
2019-05-30T09:53:46.082Z,46.70
2019-05-30T09:55:46.277Z,49.81
2019-05-30T09:56:46.564Z,43.34
2019-05-30T09:57:46.015Z,50.31
2019-05-30T09:58:46.145Z,49.95
2019-05-30T10:00:47.254Z,46.97
2019-05-30T10:01:46.090Z,45.89
2019-05-30T10:02:46.667Z,43.51
2019-05-30T10:03:46.541Z,42.94
2019-05-30T10:06:46.351Z,36.84
2019-05-30T10:07:47.393Z,42.14
2019-05-30T10:08:47.727Z,52.71
2019-05-30T10:09:47.089Z,40.41
2019-05-30T10:12:46.965Z,42.07
2019-05-30T10:13:47.480Z,44.70
2019-05-30T10:14:46.911Z,39.38
2019-05-30T10:15:46.923Z,35.93
2019-05-30T10:17:47.572Z,41.39
2019-05-30T10:18:47.245Z,43.34
2019-05-30T10:19:47.053Z,45.57
2019-05-30T10:20:47.679Z,42.50
2019-05-30T10:23:47.538Z,37.30
2019-05-30T10:24:47.541Z,35.79
2019-05-30T10:25:46.126Z,38.90
2019-05-30T10:26:47.112Z,38.64
2019-05-30T10:28:47.652Z,39.64
2019-05-30T10:29:47.527Z,36.06
2019-05-30T10:30:50.315Z,35.23
2019-05-30T10:31:46.520Z,41.44
2019-05-30T10:33:47.477Z,42.97
2019-05-30T10:34:46.626Z,44.83
2019-05-30T10:35:47.347Z,42.90
2019-05-30T10:36:47.257Z,46.65
2019-05-30T10:38:47.420Z,37.98
2019-05-30T10:39:47.263Z,39.18
2019-05-30T10:40:47.406Z,43.61
2019-05-30T10:41:47.188Z,46.24
2019-05-30T10:43:47.367Z,44.07
2019-05-30T10:44:47.503Z,43.74
2019-05-30T10:45:46.569Z,37.44
2019-05-30T10:46:47.228Z,42.32
2019-05-30T10:47:47.388Z,44.74
2019-05-30T10:49:46.847Z,44.88
2019-05-30T10:50:47.003Z,53.66
2019-05-30T10:51:46.739Z,39.04
2019-05-30T10:52:47.139Z,43.49
2019-05-30T10:54:46.735Z,47.48
2019-05-30T10:55:46.918Z,41.54
2019-05-30T10:56:47.063Z,41.81
2019-05-30T10:57:47.024Z,43.74
2019-05-30T10:59:47.256Z,48.07
2019-05-30T11:00:48.533Z,47.87
2019-05-30T11:01:47.101Z,46.52
2019-05-30T11:02:47.491Z,43.56
2019-05-30T11:04:47.296Z,47.72
2019-05-30T11:05:47.177Z,44.45
2019-05-30T11:07:01.282Z,43.64
2019-05-30T11:08:00.299Z,44.55
2019-05-30T11:10:46.390Z,43.67
2019-05-30T11:11:46.654Z,40.29
2019-05-30T11:12:46.657Z,36.51
2019-05-30T11:13:46.873Z,42.05
2019-05-30T11:15:47.080Z,44.39
2019-05-30T11:16:47.041Z,46.18
2019-05-30T11:17:47.237Z,39.65
2019-05-30T11:18:47.486Z,36.66
2019-05-30T11:20:46.053Z,43.13
2019-05-30T11:21:46.129Z,42.43
2019-05-30T11:22:46.065Z,42.40
2019-05-30T11:23:46.084Z,39.13
2019-05-30T11:25:46.048Z,43.73
2019-05-30T11:26:46.045Z,39.60
2019-05-30T11:27:46.119Z,43.07
2019-05-30T11:28:46.054Z,36.78
2019-05-30T11:30:46.088Z,38.85
2019-05-30T11:31:46.055Z,44.14
2019-05-30T11:32:46.058Z,45.80
2019-05-30T11:33:46.076Z,46.25
2019-05-30T11:35:46.063Z,48.60
2019-05-30T11:36:46.104Z,47.23
2019-05-30T11:37:46.122Z,50.92
2019-05-30T11:38:46.138Z,51.48
2019-05-30T11:40:46.139Z,43.99
2019-05-30T11:41:46.154Z,44.11
2019-05-30T11:42:46.106Z,40.21
2019-05-30T11:43:46.166Z,50.63
2019-05-30T11:45:46.139Z,47.09
2019-05-30T11:46:46.144Z,46.77
2019-05-30T11:47:46.060Z,48.46
2019-05-30T11:48:46.114Z,46.56
2019-05-30T11:50:46.138Z,51.87
2019-05-30T11:51:46.152Z,49.34
2019-05-30T11:52:46.156Z,40.22
2019-05-30T11:53:46.136Z,42.02
2019-05-30T11:55:46.133Z,46.63
2019-05-30T11:56:46.123Z,42.92
2019-05-30T11:57:46.185Z,47.27
2019-05-30T11:58:46.169Z,38.40
2019-05-30T12:00:46.159Z,34.26
2019-05-30T12:01:46.210Z,34.20
2019-05-30T12:02:46.162Z,39.39
2019-05-30T12:03:46.187Z,39.14
2019-05-30T12:05:46.157Z,35.26
2019-05-30T12:06:46.115Z,41.28
2019-05-30T12:07:46.198Z,36.84
2019-05-30T12:08:46.185Z,40.35
2019-05-30T12:10:46.183Z,39.00
2019-05-30T12:11:46.190Z,39.84
2019-05-30T12:12:46.177Z,41.42
2019-05-30T12:13:46.120Z,42.32
2019-05-30T12:15:46.152Z,42.04
2019-05-30T12:16:46.204Z,40.96
2019-05-30T12:17:46.176Z,38.98
2019-05-30T12:18:46.205Z,45.24
2019-05-30T12:21:46.238Z,46.40
2019-05-30T12:22:46.213Z,48.50
2019-05-30T12:23:46.205Z,50.36
2019-05-30T12:24:46.140Z,53.31
2019-05-30T12:27:46.134Z,46.62
2019-05-30T12:28:46.231Z,52.21
2019-05-30T12:29:46.169Z,55.28
2019-05-30T12:30:55.782Z,45.36
2019-05-30T12:32:46.225Z,59.47
2019-05-30T12:33:46.148Z,44.17
2019-05-30T12:34:46.189Z,50.41
2019-05-30T12:35:46.192Z,48.71
2019-05-30T12:37:54.912Z,42.75
2019-05-30T12:38:46.156Z,47.71
2019-05-30T12:39:46.223Z,46.67
2019-05-30T12:40:46.166Z,39.21
2019-05-30T12:42:46.230Z,39.80
2019-05-30T12:43:46.490Z,38.20
2019-05-30T12:44:46.199Z,46.45
2019-05-30T12:45:46.197Z,38.43
2019-05-30T12:47:46.203Z,40.93
2019-05-30T12:48:46.250Z,41.64
2019-05-30T12:49:46.237Z,36.32
2019-05-30T12:50:46.210Z,38.41
2019-05-30T12:52:46.210Z,37.21
2019-05-30T12:53:49.105Z,40.64
2019-05-30T12:54:46.191Z,35.07
2019-05-30T12:55:46.205Z,35.00
2019-05-30T12:58:46.326Z,36.67
2019-05-30T12:59:46.179Z,42.63
2019-05-30T13:00:46.216Z,34.15
2019-05-30T13:01:46.304Z,38.18
2019-05-30T13:03:46.187Z,35.99
2019-05-30T13:04:46.278Z,39.50
2019-05-30T13:05:46.249Z,37.82
2019-05-30T13:06:46.263Z,40.24
2019-05-30T13:08:46.268Z,39.41
2019-05-30T13:09:46.212Z,38.30
2019-05-30T13:10:46.263Z,40.63
2019-05-30T13:11:46.305Z,36.72
2019-05-30T13:13:46.225Z,44.42
2019-05-30T13:14:46.299Z,45.18
2019-05-30T13:15:46.284Z,44.33
2019-05-30T13:16:46.257Z,42.20
2019-05-30T13:19:46.257Z,44.51
2019-05-30T13:20:46.221Z,44.72
2019-05-30T13:21:46.374Z,48.15
2019-05-30T13:22:46.278Z,48.46
2019-05-30T13:24:46.300Z,44.46
2019-05-30T13:25:46.282Z,38.06
2019-05-30T13:26:46.299Z,37.07
2019-05-30T13:27:46.262Z,43.24
2019-05-30T13:30:46.305Z,45.23
2019-05-30T13:31:46.329Z,44.15
2019-05-30T13:32:46.324Z,46.18
2019-05-30T13:33:46.316Z,40.88
2019-05-30T13:35:46.294Z,44.83
2019-05-30T13:36:46.289Z,40.24
2019-05-30T13:37:46.305Z,43.76
2019-05-30T13:38:46.325Z,42.92
2019-05-30T13:41:46.283Z,38.96
2019-05-30T13:42:46.339Z,42.22
2019-05-30T13:43:46.275Z,39.16
2019-05-30T13:44:46.339Z,41.03
2019-05-30T13:46:46.325Z,41.23
2019-05-30T13:47:46.319Z,41.17
2019-05-30T13:48:46.304Z,51.59
2019-05-30T13:49:46.309Z,44.64
2019-05-30T13:51:46.290Z,41.39
2019-05-30T13:52:46.322Z,43.45
2019-05-30T13:53:46.370Z,45.81
2019-05-30T13:54:46.569Z,39.68
2019-05-30T13:57:46.359Z,40.25
2019-05-30T13:58:46.321Z,39.68
2019-05-30T13:59:46.364Z,42.74
2019-05-30T14:00:46.333Z,43.41
2019-05-30T14:02:46.402Z,43.64
2019-05-30T14:03:46.286Z,44.36
2019-05-30T14:04:46.332Z,42.91
2019-05-30T14:05:46.354Z,42.30
2019-05-30T14:07:46.373Z,43.80
2019-05-30T14:08:46.300Z,43.72
2019-05-30T14:09:46.379Z,43.29
2019-05-30T14:10:46.363Z,43.71
2019-05-30T14:13:46.377Z,45.92
2019-05-30T14:14:46.370Z,45.06
2019-05-30T14:15:46.353Z,51.27
2019-05-30T14:16:46.344Z,49.81
2019-05-30T14:18:46.414Z,44.67
2019-05-30T14:19:46.392Z,42.48
2019-05-30T14:20:46.394Z,50.62
2019-05-30T14:21:46.325Z,44.98
2019-05-30T14:23:46.322Z,44.41
2019-05-30T14:24:46.677Z,44.38
2019-05-30T14:25:46.429Z,44.57
2019-05-30T14:26:46.377Z,45.48
2019-05-30T14:28:46.675Z,41.18
2019-05-30T14:29:46.371Z,41.98
2019-05-30T14:30:46.430Z,44.12
2019-05-30T14:31:46.374Z,48.27
2019-05-30T14:33:46.327Z,44.62
2019-05-30T14:34:46.384Z,45.09
2019-05-30T14:35:46.339Z,47.02
2019-05-30T14:36:46.415Z,50.65
2019-05-30T14:38:57.945Z,51.56
2019-05-30T14:39:46.305Z,44.60
2019-05-30T14:40:46.400Z,49.05
2019-05-30T14:41:46.447Z,51.00
2019-05-30T14:43:46.435Z,45.24
2019-05-30T14:44:46.395Z,40.83
2019-05-30T14:45:46.431Z,43.47
2019-05-30T14:46:46.519Z,41.95
2019-05-30T14:48:46.414Z,45.33
2019-05-30T14:49:46.407Z,41.80
2019-05-30T14:50:46.389Z,38.99
2019-05-30T14:51:46.376Z,42.56
2019-05-30T14:53:46.401Z,40.19
2019-05-30T14:54:46.352Z,46.05
2019-05-30T14:55:46.419Z,44.34
2019-05-30T14:56:46.450Z,42.14
2019-05-30T14:58:46.423Z,41.50
2019-05-30T14:59:46.422Z,45.42
2019-05-30T15:00:46.409Z,46.40
2019-05-30T15:01:46.420Z,45.26
2019-05-30T15:03:46.415Z,47.02
2019-05-30T15:04:46.458Z,45.47
2019-05-30T15:05:46.414Z,49.03
2019-05-30T15:06:46.427Z,43.48
2019-05-30T15:08:46.446Z,47.85
2019-05-30T15:09:46.443Z,42.31
2019-05-30T15:10:46.464Z,43.37
2019-05-30T15:11:46.408Z,47.38
2019-05-30T15:13:46.463Z,45.60
2019-05-30T15:14:46.465Z,39.12
2019-05-30T15:15:46.446Z,46.49
2019-05-30T15:16:46.445Z,38.34
2019-05-30T15:18:46.474Z,41.60
2019-05-30T15:19:46.453Z,45.46
2019-05-30T15:20:46.436Z,45.32
2019-05-30T15:21:46.486Z,47.00
2019-05-30T15:23:46.450Z,37.84
2019-05-30T15:24:46.481Z,45.40
2019-05-30T15:25:46.459Z,40.69
2019-05-30T15:26:46.419Z,43.78
2019-05-30T15:28:46.475Z,43.99
2019-05-30T15:29:46.448Z,46.03
2019-05-30T15:30:46.459Z,40.75
2019-05-30T15:31:46.414Z,45.62
2019-05-30T15:33:46.458Z,40.76
2019-05-30T15:34:46.487Z,45.51
2019-05-30T15:35:46.447Z,44.91
2019-05-30T15:36:46.462Z,44.08
2019-05-30T15:39:46.425Z,46.36
2019-05-30T15:40:46.469Z,47.00
2019-05-30T15:41:46.509Z,42.79
2019-05-30T15:42:46.484Z,43.83
2019-05-30T15:45:46.519Z,42.26
2019-05-30T15:46:46.536Z,43.57
2019-05-30T15:47:46.477Z,41.89